Ana Sayfa
METAR-TAF:

METAR-TAF

Havaalanları :

Hobbs, New Mexico, Amerika Birleşik Devletleri

Enlem: 32-41N, Boylam: 103-13W, yükseklik: 1115 m

Güncel hava durumu gözlemi

Rapor saat 07:35 UTC de 31 dakika önce yapıldı.
Rüzgar güneydan 12 kt ve 18 kt'a kadar ani rüzgarlar
Sıcaklık 26°C
Nem 58%
Basınç 1016 hPa
Görüş mesafesi: 16.1 km
Açık gökyüzü

METAR: KHOB 250735Z AUTO 17012G18KT 10SM CLR 26/17 A2999 RMK AO2

Saat: 02:06 (08:06 UTC)

Tahmin

Rapor saat 05:20 UTC de 2 saat ve 46 dakika önce yapıldı.
Ayın 25'si saat 06 UTC'den ayın 26'si saat 06 UTC'ye kadar geçerli Tahmin
Rüzgar güney/güneydoğudan 10 kt
Görüş mesafesi: 10 km
Açık gökyüzü

TAF: KHOB 250520Z 2506/2606 15010KT P6SM SKC

4.000'den fazla havaalanı için hava durumu gözlemleri ve tahminleri (METAR ve TAF raporları).

Kullanılabilir istasyonlar harita üzerinde sarı ve kırmızı noktalarla gösterilir.

İstasyonun adını görmek için fareyi noktanın üzerinde gezdirin.

Sonrasında hava gözlem ve tahminlerini görmek için tıklayın.

Haritayı değiştirmek için: yaklaştırmak için siyah artı işaretli yeşil düğmeye ve uzaklaştırmak için de eksi işaretli düğmeye hızla tıklayın; bitişik haritalar için yeşil okları kullanın.


METAR-TAF: